createdAt,value
2022-09-20T00:02:13.289Z,102314.38
2022-09-20T00:07:16.424Z,102306.03
2022-09-20T00:12:19.465Z,102313.31
2022-09-20T00:17:23.764Z,102316.16
2022-09-20T00:22:27.557Z,102309.09
2022-09-20T00:27:31.133Z,102314.66
2022-09-20T00:32:35.398Z,102315.16
2022-09-20T00:37:39.865Z,102324.03
2022-09-20T00:42:42.955Z,102343.59
2022-09-20T00:47:51.366Z,102352.50
2022-09-20T00:52:59.271Z,102331.03
2022-09-20T00:58:02.827Z,102325.50
2022-09-20T01:03:10.013Z,102327.13
2022-09-20T01:08:13.753Z,102337.44
2022-09-20T01:13:16.842Z,102333.81
2022-09-20T01:18:24.113Z,102325.81
2022-09-20T01:23:37.841Z,102324.09
2022-09-20T01:28:47.738Z,102319.00
2022-09-20T01:33:54.433Z,102318.81
2022-09-20T01:39:14.604Z,102336.03
2022-09-20T01:44:29.591Z,102326.19
2022-09-20T01:49:41.785Z,102324.47
2022-09-20T01:55:13.542Z,102319.63
2022-09-20T02:00:21.776Z,102322.34
2022-09-20T02:06:03.751Z,102314.19
2022-09-20T02:11:15.023Z,102315.53
2022-09-20T02:16:48.726Z,102320.91
2022-09-20T02:22:05.481Z,102322.19
2022-09-20T02:27:19.406Z,102325.44
2022-09-20T02:32:46.423Z,102322.56
2022-09-20T02:38:01.888Z,102312.13
2022-09-20T02:43:14.302Z,102310.72
2022-09-20T02:48:25.475Z,102315.56
2022-09-20T02:53:38.921Z,102309.72
2022-09-20T02:58:53.385Z,102309.81
2022-09-20T03:04:09.213Z,102309.97
2022-09-20T03:09:19.724Z,102301.38
2022-09-20T03:14:27.654Z,102310.69
2022-09-20T03:19:56.966Z,102315.09
2022-09-20T03:25:32.152Z,102323.91
2022-09-20T03:30:52.112Z,102294.59
2022-09-20T03:36:11.960Z,102290.25
2022-09-20T03:41:48.602Z,102309.66
2022-09-20T03:46:57.932Z,102301.53
2022-09-20T03:52:15.963Z,102308.69
2022-09-20T03:57:36.476Z,102306.59
2022-09-20T04:03:00.572Z,102303.69
2022-09-20T04:08:18.427Z,102311.59
2022-09-20T04:13:35.773Z,102305.03
2022-09-20T04:18:46.450Z,102312.72
2022-09-20T04:23:57.489Z,102304.66
2022-09-20T04:29:14.578Z,102305.47
2022-09-20T04:34:24.175Z,102309.97
2022-09-20T04:39:42.582Z,102318.56
2022-09-20T04:45:16.734Z,102318.56
2022-09-20T04:50:40.379Z,102316.84
2022-09-20T04:55:57.027Z,102323.41
2022-09-20T05:01:33.282Z,102327.03
2022-09-20T05:07:03.352Z,102327.03
2022-09-20T05:12:39.014Z,102335.69
2022-09-20T05:18:05.956Z,102340.16
2022-09-20T05:23:29.900Z,102344.34
2022-09-20T05:28:40.347Z,102353.56
2022-09-20T05:33:53.669Z,102350.84
2022-09-20T05:39:03.925Z,102347.97
2022-09-20T05:44:20.663Z,102357.91
2022-09-20T05:49:41.235Z,102352.81
2022-09-20T05:55:13.903Z,102364.50
2022-09-20T06:00:21.551Z,102362.13
2022-09-20T06:05:34.962Z,102366.53
2022-09-20T06:10:51.622Z,102361.09
2022-09-20T06:16:01.252Z,102377.50
2022-09-20T06:21:16.766Z,102378.34
2022-09-20T06:26:25.171Z,102382.19
2022-09-20T06:31:29.640Z,102382.03
2022-09-20T06:36:51.460Z,102380.88
2022-09-20T06:41:56.320Z,102380.16
2022-09-20T06:47:00.680Z,102383.66
2022-09-20T06:52:05.730Z,102376.59
2022-09-20T06:57:08.786Z,102379.56
2022-09-20T07:02:13.215Z,102384.97
2022-09-20T07:07:19.097Z,102377.47
2022-09-20T07:12:22.224Z,102375.06
2022-09-20T07:17:26.939Z,102379.66
2022-09-20T07:22:29.912Z,102390.59
2022-09-20T07:27:32.851Z,102382.09
2022-09-20T07:32:39.816Z,102390.00
2022-09-20T07:37:43.532Z,102389.31
2022-09-20T07:42:46.667Z,102401.91
2022-09-20T07:47:50.955Z,102395.97
2022-09-20T07:52:57.379Z,102401.31
2022-09-20T07:58:00.544Z,102411.72
2022-09-20T08:03:06.063Z,102415.47
2022-09-20T08:08:09.641Z,102413.78
2022-09-20T08:18:38.308Z,102425.53
2022-09-20T08:23:43.512Z,102426.78
2022-09-20T08:28:47.390Z,102431.13
2022-09-20T08:33:53.181Z,102433.22
2022-09-20T08:44:26.465Z,102444.19
2022-09-20T08:49:32.004Z,102447.09
2022-09-20T08:54:36.325Z,102464.34
2022-09-20T08:59:40.973Z,102459.53
2022-09-20T09:04:45.756Z,102463.69
2022-09-20T09:09:51.944Z,102463.84
2022-09-20T09:14:59.722Z,102464.25
2022-09-20T09:20:16.925Z,102457.91
2022-09-20T09:25:25.618Z,102459.44
2022-09-20T09:30:33.097Z,102454.09
2022-09-20T09:35:38.484Z,102451.84
2022-09-20T09:40:51.326Z,102457.50
2022-09-20T09:45:55.481Z,102458.09
2022-09-20T09:51:15.503Z,102463.91
2022-09-20T09:56:39.292Z,102471.84
2022-09-20T10:01:50.293Z,102467.00
2022-09-20T10:07:04.412Z,102458.03
2022-09-20T10:12:30.200Z,102452.22
2022-09-20T10:17:48.435Z,102458.88
2022-09-20T10:23:34.532Z,102462.19
2022-09-20T10:28:48.596Z,102462.31
2022-09-20T10:34:07.687Z,102454.41
2022-09-20T10:39:20.139Z,102454.72
2022-09-20T10:44:40.398Z,102467.72
2022-09-20T10:49:50.982Z,102474.75
2022-09-20T10:55:10.035Z,102474.84
2022-09-20T11:00:25.245Z,102470.25
2022-09-20T11:05:35.056Z,102477.38
2022-09-20T11:10:48.089Z,102491.84
2022-09-20T11:15:59.561Z,102489.78
2022-09-20T11:21:09.425Z,102479.66
2022-09-20T11:26:20.022Z,102481.25
2022-09-20T11:31:28.238Z,102476.00
2022-09-20T11:36:40.872Z,102469.06
2022-09-20T11:41:46.932Z,102479.00
2022-09-20T11:46:56.897Z,102485.41
2022-09-20T11:52:36.114Z,102476.56
2022-09-20T11:57:40.930Z,102463.22
2022-09-20T12:02:50.513Z,102472.03
2022-09-20T12:07:56.159Z,102469.47
2022-09-20T12:13:02.250Z,102470.25
2022-09-20T12:18:37.955Z,102471.72
2022-09-20T12:24:21.380Z,102474.53
2022-09-20T12:30:16.103Z,102470.91
2022-09-20T12:36:01.299Z,102466.16
2022-09-20T12:41:12.821Z,102460.28
2022-09-20T12:46:23.199Z,102452.03
2022-09-20T12:51:50.952Z,102447.09
2022-09-20T12:56:56.274Z,102444.72
2022-09-20T13:02:49.409Z,102459.50
2022-09-20T13:08:01.462Z,102453.13
2022-09-20T13:13:32.169Z,102455.66
2022-09-20T13:18:37.952Z,102460.25
2022-09-20T13:23:49.728Z,102462.94
2022-09-20T13:28:56.344Z,102465.63
2022-09-20T13:34:29.763Z,102464.25
2022-09-20T13:39:39.609Z,102462.22
2022-09-20T13:44:44.930Z,102464.22
2022-09-20T13:49:48.238Z,102462.75
2022-09-20T13:54:51.366Z,102464.38
2022-09-20T13:59:58.219Z,102458.16
2022-09-20T14:05:04.698Z,102455.97
2022-09-20T14:10:28.313Z,102449.59
2022-09-20T14:15:37.308Z,102453.69
2022-09-20T14:20:43.664Z,102449.41
2022-09-20T14:26:07.082Z,102458.91
2022-09-20T14:31:17.430Z,102450.66
2022-09-20T14:36:23.824Z,102456.91
2022-09-20T14:41:29.811Z,102452.16
2022-09-20T14:46:36.266Z,102445.31
2022-09-20T14:51:39.407Z,102439.91
2022-09-20T14:56:49.349Z,102438.50
2022-09-20T15:02:03.499Z,102439.25
2022-09-20T15:07:08.477Z,102433.16
2022-09-20T15:12:17.902Z,102439.69
2022-09-20T15:17:23.763Z,102434.09
2022-09-20T15:22:27.484Z,102430.38
2022-09-20T15:27:30.427Z,102433.44
2022-09-20T15:32:34.805Z,102429.25
2022-09-20T15:37:38.394Z,102431.56
2022-09-20T15:42:41.920Z,102422.00
2022-09-20T15:47:46.810Z,102424.69
2022-09-20T15:52:50.472Z,102423.94
2022-09-20T15:57:53.504Z,102430.06
2022-09-20T16:02:57.918Z,102429.09
2022-09-20T16:08:00.798Z,102431.16
2022-09-20T16:13:03.691Z,102424.56
2022-09-20T16:18:26.560Z,102423.41
2022-09-20T16:23:29.617Z,102422.94
2022-09-20T16:28:32.779Z,102430.72
2022-09-20T16:33:37.640Z,102438.31
2022-09-20T16:38:44.988Z,102435.66
2022-09-20T16:43:52.169Z,102445.75
2022-09-20T16:49:00.261Z,102456.63
2022-09-20T16:54:04.479Z,102460.56
2022-09-20T16:59:08.332Z,102460.47
2022-09-20T17:04:14.352Z,102467.34
2022-09-20T17:09:17.684Z,102475.31
2022-09-20T17:14:21.938Z,102476.28
2022-09-20T17:19:26.952Z,102483.75
2022-09-20T17:24:30.627Z,102482.59
2022-09-20T17:29:33.763Z,102486.88
2022-09-20T17:34:38.064Z,102491.47
2022-09-20T17:39:41.742Z,102489.03
2022-09-20T17:44:45.024Z,102501.63
2022-09-20T17:49:49.377Z,102503.91
2022-09-20T17:54:52.441Z,102514.19
2022-09-20T17:59:55.644Z,102521.78
2022-09-20T18:04:59.879Z,102524.97
2022-09-20T18:10:02.911Z,102525.47
2022-09-20T18:15:07.264Z,102526.91
2022-09-20T18:20:14.184Z,102529.25
2022-09-20T18:25:21.439Z,102532.34
2022-09-20T18:30:27.708Z,102543.41
2022-09-20T18:35:35.042Z,102543.03
2022-09-20T18:40:38.500Z,102549.69
2022-09-20T18:45:42.659Z,102548.31
2022-09-20T18:50:57.555Z,102557.41
2022-09-20T18:56:07.700Z,102556.88
2022-09-20T19:01:35.497Z,102558.25
2022-09-20T19:06:44.779Z,102567.88
2022-09-20T19:11:55.474Z,102565.84
2022-09-20T19:17:02.486Z,102581.16
2022-09-20T19:22:16.293Z,102577.19
2022-09-20T19:27:23.497Z,102584.06
2022-09-20T19:32:27.869Z,102595.97
2022-09-20T19:37:39.235Z,102594.47
2022-09-20T19:42:55.063Z,102604.75
2022-09-20T19:48:06.168Z,102607.13
2022-09-20T19:53:12.397Z,102613.75
2022-09-20T19:58:16.542Z,102618.50
2022-09-20T20:03:23.600Z,102625.91
2022-09-20T20:08:36.159Z,102618.41
2022-09-20T20:14:07.898Z,102619.69
2022-09-20T20:19:36.307Z,102631.50
2022-09-20T20:24:46.814Z,102623.94
2022-09-20T20:29:50.382Z,102623.44
2022-09-20T20:34:53.310Z,102636.06
2022-09-20T20:39:57.677Z,102639.13
2022-09-20T20:45:00.615Z,102637.81
2022-09-20T20:50:03.557Z,102650.56
2022-09-20T20:55:08.722Z,102651.88
2022-09-20T21:00:12.584Z,102654.84
2022-09-20T21:05:15.664Z,102656.91
2022-09-20T21:10:21.843Z,102652.09
2022-09-20T21:15:24.715Z,102660.91
2022-09-20T21:20:27.785Z,102665.28
2022-09-20T21:25:32.133Z,102667.84
2022-09-20T21:30:35.189Z,102670.38
2022-09-20T21:35:38.066Z,102671.28
2022-09-20T21:40:43.216Z,102682.69
2022-09-20T21:45:46.507Z,102675.66
2022-09-20T21:50:49.576Z,102684.59
2022-09-20T21:55:58.557Z,102678.47
2022-09-20T22:01:03.613Z,102686.31
2022-09-20T22:06:08.863Z,102684.66
2022-09-20T22:11:15.101Z,102679.47
2022-09-20T22:16:20.617Z,102678.47
2022-09-20T22:21:26.040Z,102682.69
2022-09-20T22:26:32.780Z,102680.59
2022-09-20T22:31:39.159Z,102683.63
2022-09-20T22:36:43.397Z,102686.72
2022-09-20T22:41:49.157Z,102681.00
2022-09-20T22:46:52.639Z,102683.94
2022-09-20T22:51:55.947Z,102680.84
2022-09-20T22:57:01.554Z,102679.47
2022-09-20T23:02:05.391Z,102687.16
2022-09-20T23:07:09.219Z,102690.47
2022-09-20T23:12:13.916Z,102692.97
2022-09-20T23:17:17.385Z,102691.72
2022-09-20T23:22:20.958Z,102694.25
2022-09-20T23:27:25.775Z,102683.34
2022-09-20T23:32:29.345Z,102692.09
2022-09-20T23:37:32.649Z,102688.53
2022-09-20T23:42:37.354Z,102682.28
2022-09-20T23:47:40.595Z,102690.97
2022-09-20T23:52:43.817Z,102696.16
2022-09-20T23:57:51.019Z,102688.97
